Time;durP1;ratioP1;P1;durP2;ratioP2;P2;SDS_P1;SDS_P2;PMS_P1;PMS_P2;Temp;Humidity;BMP_temperature;BMP_pressure;BME280_temperature;BME280_humidity;BME280_pressure;Samples;Min_cycle;Max_cycle;Signal;HPM_P1;HPM_P2
2021/11/13 00:02:10;;;;;;;11.18;7.72;;;;;;;11.42;46.69;100853.69;4972219;28;20082;-68
2021/11/13 00:04:37;;;;;;;9.63;6.40;;;;;;;11.42;46.50;100850.97;4969535;28;20091;-70
2021/11/13 00:07:04;;;;;;;10.45;6.90;;;;;;;11.41;46.52;100842.91;4971908;28;20548;-68
2021/11/13 00:09:31;;;;;;;11.73;6.65;;;;;;;11.40;46.52;100849.31;4970698;28;20194;-70
2021/11/13 00:11:58;;;;;;;10.85;7.15;;;;;;;11.39;46.59;100847.56;4972227;28;20105;-71
2021/11/13 00:14:27;;;;;;;10.30;7.38;;;;;;;11.38;46.55;100841.28;4970739;28;20147;-70
2021/11/13 00:16:55;;;;;;;10.13;6.90;;;;;;;11.37;46.60;100850.41;4971740;28;20113;-71
2021/11/13 00:19:22;;;;;;;10.13;6.53;;;;;;;11.36;46.56;100843.25;4969681;28;20050;-69
2021/11/13 00:21:49;;;;;;;10.70;6.53;;;;;;;11.34;46.74;100834.31;4970768;28;20051;-70
2021/11/13 00:24:16;;;;;;;9.98;6.90;;;;;;;11.35;46.46;100827.03;4969736;28;20046;-70
2021/11/13 00:26:42;;;;;;;10.27;6.63;;;;;;;11.33;46.44;100827.16;4971329;28;20549;-68
2021/11/13 00:29:09;;;;;;;10.30;6.47;;;;;;;11.33;46.59;100821.72;4970986;28;20138;-71
2021/11/13 00:31:36;;;;;;;10.50;6.50;;;;;;;11.33;46.32;100818.13;4971617;28;20078;-70
2021/11/13 00:34:02;;;;;;;12.20;7.15;;;;;;;11.34;46.76;100822.59;4970574;28;20161;-70
2021/11/13 00:36:29;;;;;;;12.18;6.40;;;;;;;11.33;46.88;100816.28;4970970;28;20094;-71
2021/11/13 00:38:56;;;;;;;9.52;6.20;;;;;;;11.34;46.47;100811.72;4970523;28;20090;-70
2021/11/13 00:41:22;;;;;;;11.63;7.10;;;;;;;11.35;46.64;100821.59;4970569;28;20057;-70
2021/11/13 00:43:49;;;;;;;9.57;6.53;;;;;;;11.34;46.76;100822.59;4970307;28;20532;-70
2021/11/13 00:46:16;;;;;;;10.13;6.47;;;;;;;11.34;46.73;100814.44;4970859;28;20082;-70
2021/11/13 00:48:42;;;;;;;9.73;5.97;;;;;;;11.35;46.85;100816.16;4970308;28;20517;-69
2021/11/13 00:51:09;;;;;;;10.10;6.78;;;;;;;11.34;46.77;100814.44;4971073;28;20145;-68
2021/11/13 00:53:38;;;;;;;10.68;6.80;;;;;;;11.34;46.70;100807.16;4970610;28;20051;-70
2021/11/13 00:56:05;;;;;;;10.32;6.45;;;;;;;11.35;46.89;100808.00;4970614;28;20054;-71
2021/11/13 00:58:33;;;;;;;9.88;6.25;;;;;;;11.36;46.82;100815.19;4970322;28;20097;-71
2021/11/13 01:01:01;;;;;;;9.77;6.47;;;;;;;11.36;46.68;100809.75;4970490;28;20095;-71
2021/11/13 01:03:27;;;;;;;9.15;6.00;;;;;;;11.37;46.73;100809.63;4969992;28;20097;-70
2021/11/13 01:05:54;;;;;;;9.63;5.95;;;;;;;11.37;46.88;100801.47;4970767;28;20089;-71
2021/11/13 01:08:20;;;;;;;10.18;6.60;;;;;;;11.39;46.76;100801.38;4953530;28;20098;-71
2021/11/13 01:10:50;;;;;;;9.90;6.28;;;;;;;11.38;46.73;100808.66;4969518;28;20129;-69
2021/11/13 01:13:17;;;;;;;10.63;6.90;;;;;;;11.41;46.92;100799.41;4970652;28;20093;-69
2021/11/13 01:15:43;;;;;;;8.98;6.05;;;;;;;11.41;46.56;100794.84;4969683;28;20153;-70
2021/11/13 01:18:10;;;;;;;8.68;5.85;;;;;;;11.43;46.85;100800.19;4968238;28;20532;-70
2021/11/13 01:20:37;;;;;;;10.18;6.43;;;;;;;11.44;46.80;100791.06;4969022;28;20059;-70
2021/11/13 01:23:04;;;;;;;10.85;6.13;;;;;;;11.43;46.69;100792.03;4970335;28;20046;-70
2021/11/13 01:25:31;;;;;;;9.32;6.00;;;;;;;11.44;46.94;100793.78;4969767;28;20133;-71
2021/11/13 01:27:57;;;;;;;9.55;6.07;;;;;;;11.44;46.79;100786.50;4969044;28;20109;-70
2021/11/13 01:30:24;;;;;;;9.55;6.30;;;;;;;11.44;46.78;100783.78;4969222;28;20089;-69
2021/11/13 01:32:51;;;;;;;10.73;6.45;;;;;;;11.45;46.69;100780.03;4970334;28;20046;-68
2021/11/13 01:35:19;;;;;;;10.50;6.55;;;;;;;11.44;46.93;100772.91;4969659;28;20093;-71
2021/11/13 01:37:45;;;;;;;11.07;6.93;;;;;;;11.44;46.79;100766.59;4969154;28;20042;-69
2021/11/13 01:40:16;;;;;;;9.43;6.20;;;;;;;11.45;46.71;100765.59;4968885;28;20729;-71
2021/11/13 01:42:44;;;;;;;9.68;6.45;;;;;;;11.42;46.80;100766.69;4970130;28;20487;-70
2021/11/13 01:45:11;;;;;;;10.23;6.57;;;;;;;11.42;46.48;100763.97;4969265;28;20149;-71
2021/11/13 01:47:39;;;;;;;10.25;5.72;;;;;;;11.43;46.76;100759.41;4970023;28;20093;-71
2021/11/13 01:50:16;;;;;;;9.63;5.72;;;;;;;11.45;46.72;100762.88;4966398;28;20070;-70
2021/11/13 01:52:44;;;;;;;8.90;5.80;;;;;;;11.43;46.86;100760.28;4969478;28;20141;-70
2021/11/13 01:55:12;;;;;;;9.50;6.18;;;;;;;11.44;46.66;100753.00;4967021;28;20089;-70
2021/11/13 01:57:45;;;;;;;9.82;6.53;;;;;;;11.45;46.70;100743.84;4970338;28;20130;-71
2021/11/13 02:00:17;;;;;;;9.48;6.80;;;;;;;11.48;46.99;100734.59;4969069;28;20085;-70
2021/11/13 02:02:44;;;;;;;9.68;5.85;;;;;;;11.46;46.79;100715.66;4969903;28;20101;-70
2021/11/13 02:05:11;;;;;;;10.10;6.47;;;;;;;11.47;46.46;100717.41;4969308;28;20094;-70
2021/11/13 02:07:37;;;;;;;9.07;5.90;;;;;;;11.47;46.66;100709.25;4969494;28;20088;-68
2021/11/13 02:10:07;;;;;;;10.13;5.93;;;;;;;11.48;47.01;100702.84;4969425;28;20177;-71
2021/11/13 02:12:33;;;;;;;9.77;6.15;;;;;;;11.47;47.00;100700.22;4970041;28;20057;-71
2021/11/13 02:15:01;;;;;;;11.70;6.97;;;;;;;11.48;46.83;100705.56;4968847;28;20164;-70
2021/11/13 02:17:28;;;;;;;9.35;6.22;;;;;;;11.47;46.98;100698.38;4969581;28;20456;-70
2021/11/13 02:19:55;;;;;;;12.88;7.15;;;;;;;11.48;46.92;100693.81;4969153;28;20078;-70
2021/11/13 02:22:23;;;;;;;10.85;6.43;;;;;;;11.47;47.00;100692.94;4969810;28;20055;-71
2021/11/13 02:24:50;;;;;;;10.77;6.68;;;;;;;11.48;47.04;100689.25;4969018;28;20420;-70
2021/11/13 02:27:16;;;;;;;10.52;6.57;;;;;;;11.49;46.98;100684.69;4969434;28;20086;-70
2021/11/13 02:29:43;;;;;;;9.77;6.60;;;;;;;11.48;46.87;100681.09;4969407;28;20138;-71
2021/11/13 02:32:12;;;;;;;10.82;6.68;;;;;;;11.50;46.96;100679.13;4969858;28;20079;-71
2021/11/13 02:34:39;;;;;;;9.50;5.97;;;;;;;11.50;47.12;100687.28;4968952;28;20166;-70
2021/11/13 02:37:06;;;;;;;10.82;6.90;;;;;;;11.51;47.01;100688.16;4969515;28;20055;-70
2021/11/13 02:39:33;;;;;;;9.95;6.43;;;;;;;11.51;47.08;100689.03;4968806;28;20129;-71
2021/11/13 02:42:00;;;;;;;9.48;5.78;;;;;;;11.53;47.44;100686.22;4969713;28;20050;-71
2021/11/13 02:44:27;;;;;;;10.68;7.00;;;;;;;11.54;47.30;100682.47;4968536;28;20142;-68
2021/11/13 02:46:53;;;;;;;10.18;6.38;;;;;;;11.56;47.44;100677.81;4968552;28;20054;-70
2021/11/13 02:49:20;;;;;;;11.02;6.75;;;;;;;11.57;47.43;100680.41;4968617;28;20129;-70
2021/11/13 02:51:48;;;;;;;10.63;6.68;;;;;;;11.57;47.35;100677.69;4952503;28;20505;-68
2021/11/13 02:54:14;;;;;;;11.13;6.53;;;;;;;11.59;47.48;100686.63;4968823;28;20055;-68
2021/11/13 02:56:41;;;;;;;10.68;6.15;;;;;;;11.58;47.61;100682.16;4969596;28;20122;-71
2021/11/13 02:59:07;;;;;;;10.60;6.35;;;;;;;11.60;47.76;100682.94;4968541;28;20158;-70
2021/11/13 03:01:34;;;;;;;11.10;6.45;;;;;;;11.61;47.60;100681.06;4969698;28;20505;-70
2021/11/13 03:04:01;;;;;;;8.95;6.30;;;;;;;11.63;47.57;100684.53;4968474;28;20059;-68
2021/11/13 03:06:27;;;;;;;10.02;6.88;;;;;;;11.63;47.68;100671.81;4972391;28;20504;-70
2021/11/13 03:08:54;;;;;;;10.60;6.85;;;;;;;11.66;47.88;100684.31;4972318;28;20476;-69
2021/11/13 03:11:21;;;;;;;12.27;6.60;;;;;;;11.68;47.77;100690.50;4973599;28;20082;-70
2021/11/13 03:13:51;;;;;;;10.30;6.13;;;;;;;11.69;48.06;100692.25;4970413;28;20058;-69
2021/11/13 03:16:18;;;;;;;11.25;6.60;;;;;;;11.68;47.93;100679.63;4973650;28;20078;-69
2021/11/13 03:18:45;;;;;;;10.48;6.53;;;;;;;11.70;47.97;100678.50;4972020;28;20137;-71
2021/11/13 03:21:13;;;;;;;10.85;7.32;;;;;;;11.71;48.41;100676.66;4972890;28;20050;-69
2021/11/13 03:23:43;;;;;;;12.63;7.18;;;;;;;11.72;48.42;100672.97;4971902;28;20078;-71
2021/11/13 03:26:23;;;;;;;12.43;7.00;;;;;;;11.73;48.49;100672.88;4973133;28;20133;-70
2021/11/13 03:28:54;;;;;;;10.98;6.55;;;;;;;11.71;48.06;100669.38;4971226;28;20065;-70
2021/11/13 03:31:24;;;;;;;11.77;7.03;;;;;;;11.70;48.17;100669.50;4972436;28;20138;-69
2021/11/13 03:33:51;;;;;;;10.80;6.82;;;;;;;11.70;48.46;100669.50;4971759;28;20130;-69
2021/11/13 03:36:20;;;;;;;12.98;7.15;;;;;;;11.69;48.41;100667.78;4972813;28;20489;-70
2021/11/13 03:38:48;;;;;;;11.30;7.60;;;;;;;11.68;48.55;100672.34;4972182;28;20089;-69
2021/11/13 03:41:19;;;;;;;13.35;7.32;;;;;;;11.68;48.47;100669.63;4972503;28;20070;-70
2021/11/13 03:43:46;;;;;;;10.32;6.65;;;;;;;11.67;48.42;100667.03;4970391;28;20055;-69
2021/11/13 03:46:13;;;;;;;11.55;6.60;;;;;;;11.68;48.78;100666.03;4972953;28;20047;-70
2021/11/13 03:48:41;;;;;;;12.00;6.82;;;;;;;11.68;48.46;100666.03;4971055;28;20513;-69
2021/11/13 03:51:07;;;;;;;11.40;6.88;;;;;;;11.66;48.85;100666.16;4972590;28;20135;-70
2021/11/13 03:53:34;;;;;;;10.70;6.97;;;;;;;11.66;48.69;100658.00;4971279;28;20086;-70
2021/11/13 03:56:01;;;;;;;12.57;7.25;;;;;;;11.64;48.96;100665.38;4970918;28;20141;-70
2021/11/13 03:58:27;;;;;;;11.20;7.18;;;;;;;11.64;48.81;100670.81;4970964;28;20488;-69
2021/11/13 04:00:54;;;;;;;11.10;6.68;;;;;;;11.64;48.96;100657.22;4955209;28;20133;-69
2021/11/13 04:03:21;;;;;;;10.27;6.63;;;;;;;11.65;48.92;100668.97;4972127;28;20401;-70
2021/11/13 04:05:48;;;;;;;10.15;6.43;;;;;;;11.65;49.00;100660.81;4970833;28;20085;-69
2021/11/13 04:08:15;;;;;;;10.82;7.03;;;;;;;11.65;49.00;100663.53;4970829;28;20149;-70
2021/11/13 04:10:42;;;;;;;11.50;7.18;;;;;;;11.65;49.12;100660.81;4970877;28;20079;-71
2021/11/13 04:13:09;;;;;;;13.57;8.05;;;;;;;11.64;49.22;100659.94;4971893;28;20125;-70
2021/11/13 04:15:36;;;;;;;11.75;7.38;;;;;;;11.63;49.02;100652.75;4970949;28;20509;-69
2021/11/13 04:18:02;;;;;;;12.40;7.68;;;;;;;11.62;49.50;100651.03;4970760;28;20141;-70
2021/11/13 04:20:29;;;;;;;13.80;7.60;;;;;;;11.61;49.06;100652.00;4971005;28;20105;-70
2021/11/13 04:22:56;;;;;;;13.10;7.32;;;;;;;11.62;49.30;100650.16;4971654;28;20090;-71
2021/11/13 04:25:23;;;;;;;11.95;7.28;;;;;;;11.62;49.54;100653.75;4969418;28;20051;-70
2021/11/13 04:27:50;;;;;;;11.80;7.35;;;;;;;11.64;49.81;100659.06;4971944;28;20081;-70
2021/11/13 04:30:18;;;;;;;11.02;6.95;;;;;;;11.62;49.53;100650.16;4970700;28;20082;-68
2021/11/13 04:32:48;;;;;;;11.82;6.95;;;;;;;11.64;49.60;100656.34;4971799;28;20138;-70
2021/11/13 04:35:35;;;;;;;11.13;6.90;;;;;;;11.63;49.44;100655.47;4970554;28;20182;-70
2021/11/13 04:38:02;;;;;;;12.98;7.43;;;;;;;11.62;49.85;100652.88;4971306;28;20142;-69
2021/11/13 04:40:34;;;;;;;11.07;7.50;;;;;;;11.66;49.99;100644.41;4970761;28;20054;-71
2021/11/13 04:43:00;;;;;;;14.50;7.53;;;;;;;11.62;49.91;100656.47;4971393;28;20105;-70
2021/11/13 04:45:28;;;;;;;13.20;7.80;;;;;;;11.63;50.01;100658.22;4970648;28;20097;-68
2021/11/13 04:47:54;;;;;;;12.07;7.75;;;;;;;11.63;49.77;100655.47;4971721;28;20057;-70
2021/11/13 04:50:23;;;;;;;12.82;7.40;;;;;;;11.64;49.87;100651.78;5009589;23;20512;-78
2021/11/13 04:52:50;;;;;;;11.88;7.68;;;;;;;11.64;49.82;100659.06;4994128;28;20054;-78
2021/11/13 04:55:17;;;;;;;13.65;8.18;;;;;;;11.61;50.18;100652.00;4983664;28;20058;-78
2021/11/13 04:57:44;;;;;;;12.98;7.10;;;;;;;11.62;50.02;100655.59;4973802;28;20498;-79
2021/11/13 05:00:14;;;;;;;13.48;7.75;;;;;;;11.62;50.52;100652.88;4975317;28;20047;-80
2021/11/13 05:02:41;;;;;;;12.73;7.85;;;;;;;11.60;50.31;100653.00;4974691;28;20113;-80
2021/11/13 05:05:08;;;;;;;12.88;7.78;;;;;;;11.60;50.26;100658.47;4981475;28;20100;-79
2021/11/13 05:07:34;;;;;;;12.77;7.45;;;;;;;11.61;50.41;100665.59;4993384;28;20681;-81
2021/11/13 05:10:02;;;;;;;12.82;7.72;;;;;;;11.62;50.21;100658.31;4992120;28;20057;-79
2021/11/13 05:12:29;;;;;;;12.77;6.95;;;;;;;11.63;50.33;100660.94;5009527;28;20050;-79
2021/11/13 05:14:55;;;;;;;15.40;8.10;;;;;;;11.64;50.47;100667.22;4993065;28;20054;-78
2021/11/13 05:17:22;;;;;;;12.23;7.32;;;;;;;11.64;50.46;100665.38;4993406;28;20051;-78
2021/11/13 05:19:48;;;;;;;12.77;7.55;;;;;;;11.65;50.67;100664.41;4992420;28;20074;-78
2021/11/13 05:22:15;;;;;;;11.98;6.80;;;;;;;11.66;50.65;100665.28;4993562;28;20050;-78
2021/11/13 05:24:42;;;;;;;14.00;7.40;;;;;;;11.66;50.63;100662.56;4997584;28;20509;-79
2021/11/13 05:27:10;;;;;;;12.18;7.50;;;;;;;11.67;50.61;100659.72;4993159;28;20057;-79
2021/11/13 05:29:37;;;;;;;13.52;8.60;;;;;;;11.67;50.50;100665.16;4991936;28;20100;-78
2021/11/13 05:32:04;;;;;;;12.30;7.38;;;;;;;11.68;50.59;100664.19;4974552;28;20054;-79
2021/11/13 05:34:31;;;;;;;14.30;8.38;;;;;;;11.68;50.67;100674.19;4962049;28;20070;-78
2021/11/13 05:36:58;;;;;;;14.15;8.10;;;;;;;11.68;50.59;100666.91;4961688;28;20124;-78
2021/11/13 05:39:24;;;;;;;13.57;7.20;;;;;;;11.68;50.64;100672.34;4971331;28;20058;-78
2021/11/13 05:41:52;;;;;;;12.30;6.85;;;;;;;11.69;50.81;100674.09;4972645;28;20409;-78
2021/11/13 05:44:19;;;;;;;13.27;7.70;;;;;;;11.71;51.14;100666.66;4972229;28;20109;-78
2021/11/13 05:46:46;;;;;;;14.52;8.40;;;;;;;11.72;50.99;100670.25;4972241;28;20705;-78
2021/11/13 05:49:12;;;;;;;12.40;8.15;;;;;;;11.72;51.05;100667.53;4987602;28;20090;-79
2021/11/13 05:51:39;;;;;;;12.23;7.15;;;;;;;11.72;50.79;100654.81;4972569;28;20141;-79
2021/11/13 05:54:05;;;;;;;13.38;8.38;;;;;;;11.71;51.15;100663.94;4977566;28;20050;-78
2021/11/13 05:56:32;;;;;;;11.73;7.30;;;;;;;11.73;51.00;100666.56;4980070;28;20081;-79
2021/11/13 05:58:59;;;;;;;10.55;6.80;;;;;;;11.74;51.01;100671.00;4972386;28;20116;-78
2021/11/13 06:01:28;;;;;;;13.90;8.18;;;;;;;11.73;51.41;100667.41;4971863;28;20051;-78
2021/11/13 06:03:55;;;;;;;13.95;8.13;;;;;;;11.74;51.16;100677.34;4968365;28;20051;-78
2021/11/13 06:06:21;;;;;;;11.23;7.20;;;;;;;11.76;51.22;100675.41;4967810;28;20054;-78
2021/11/13 06:08:48;;;;;;;12.30;7.38;;;;;;;11.76;50.95;100667.25;4971234;28;20149;-78
2021/11/13 06:11:15;;;;;;;12.10;7.78;;;;;;;11.79;51.35;100668.84;4981038;28;20054;-78
2021/11/13 06:13:42;;;;;;;14.40;8.20;;;;;;;11.79;51.29;100668.84;4962821;28;20067;-79
2021/11/13 06:16:09;;;;;;;13.45;7.93;;;;;;;11.79;50.86;100668.84;4973366;28;20765;-79
2021/11/13 06:18:37;;;;;;;12.95;8.10;;;;;;;11.80;51.37;100678.75;4972617;28;20086;-78
2021/11/13 06:21:06;;;;;;;13.00;7.82;;;;;;;11.82;51.48;100676.78;4973524;28;20137;-79
2021/11/13 06:23:34;;;;;;;12.23;7.30;;;;;;;11.82;51.46;100676.78;4973237;28;20054;-79
2021/11/13 06:26:00;;;;;;;13.45;7.38;;;;;;;11.82;51.33;100682.22;4974535;28;20430;-79
2021/11/13 06:28:27;;;;;;;11.82;7.18;;;;;;;11.82;51.46;100676.78;4972147;28;20051;-79
2021/11/13 06:30:54;;;;;;;13.65;7.90;;;;;;;11.84;51.25;100690.28;4972855;28;20089;-79
2021/11/13 06:33:20;;;;;;;14.07;7.20;;;;;;;11.85;50.98;100689.28;4973180;28;20102;-78
2021/11/13 06:35:48;;;;;;;15.07;7.78;;;;;;;11.86;51.23;100680.16;4972179;28;20510;-78
2021/11/13 06:38:14;;;;;;;11.95;7.45;;;;;;;11.87;51.37;100690.91;4972363;28;20146;-78
2021/11/13 06:40:41;;;;;;;13.80;8.30;;;;;;;11.87;51.31;100692.75;4972594;28;20097;-79
2021/11/13 06:43:08;;;;;;;12.35;6.95;;;;;;;11.88;51.36;100695.34;4976974;28;20089;-78
2021/11/13 06:45:34;;;;;;;14.90;8.15;;;;;;;11.87;51.61;100696.34;4974295;28;20457;-78
2021/11/13 06:48:02;;;;;;;14.75;8.45;;;;;;;11.87;51.76;100690.91;4971540;28;20495;-78
2021/11/13 06:50:29;;;;;;;14.43;8.40;;;;;;;11.89;51.38;100702.53;4976871;28;20510;-78
2021/11/13 06:52:55;;;;;;;12.63;6.95;;;;;;;11.89;51.58;100699.81;4972512;28;20845;-78
2021/11/13 06:55:22;;;;;;;12.77;7.50;;;;;;;11.90;51.43;100704.28;4978008;28;20051;-78
2021/11/13 06:57:49;;;;;;;12.23;7.28;;;;;;;11.92;51.58;100706.88;4977922;28;20101;-77
2021/11/13 07:00:18;;;;;;;14.80;8.45;;;;;;;11.93;51.96;100712.22;4974366;28;20106;-77
2021/11/13 07:02:46;;;;;;;14.13;7.82;;;;;;;11.93;51.78;100708.63;4976935;28;20121;-78
2021/11/13 07:05:12;;;;;;;13.77;7.88;;;;;;;11.94;51.90;100708.50;4973960;28;20489;-78
2021/11/13 07:07:39;;;;;;;11.48;7.10;;;;;;;11.95;52.05;100712.09;4976416;28;20055;-78
2021/11/13 07:10:12;;;;;;;12.68;6.72;;;;;;;11.96;51.61;100720.13;4978194;28;20540;-78
2021/11/13 07:12:40;;;;;;;11.27;6.32;;;;;;;11.96;51.90;100728.28;4975394;28;20493;-79
2021/11/13 07:15:09;;;;;;;11.73;7.15;;;;;;;11.98;51.91;100720.91;4966324;28;20494;-79
2021/11/13 07:17:36;;;;;;;12.13;6.85;;;;;;;12.00;51.84;100726.22;4976038;28;20102;-78
2021/11/13 07:20:04;;;;;;;12.65;7.28;;;;;;;12.00;51.76;100718.94;4975395;28;20130;-78
2021/11/13 07:22:31;;;;;;;13.30;7.57;;;;;;;12.02;51.69;100725.16;4975140;28;20065;-78
2021/11/13 07:24:59;;;;;;;13.32;7.22;;;;;;;12.04;51.74;100727.72;4995652;28;20050;-78
2021/11/13 07:27:26;;;;;;;11.57;7.13;;;;;;;12.06;51.94;100728.47;4975864;28;20065;-78
2021/11/13 07:30:00;;;;;;;12.32;6.95;;;;;;;12.06;51.74;100723.91;4966647;28;20501;-78
2021/11/13 07:32:36;;;;;;;12.23;7.00;;;;;;;12.10;52.60;100724.56;4981447;28;20043;-78
2021/11/13 07:35:03;;;;;;;11.15;6.40;;;;;;;12.07;51.88;100730.22;4975073;28;20055;-78
2021/11/13 07:37:30;;;;;;;12.45;6.88;;;;;;;12.09;51.94;100736.44;4974931;28;20383;-78
2021/11/13 07:39:56;;;;;;;11.07;7.03;;;;;;;12.09;52.06;100734.56;4974900;28;20058;-78
2021/11/13 07:42:23;;;;;;;11.18;7.00;;;;;;;12.10;52.18;100736.31;4975741;28;20058;-78
2021/11/13 07:44:50;;;;;;;12.10;7.05;;;;;;;12.11;52.06;100738.03;4970127;28;20047;-78
2021/11/13 07:47:17;;;;;;;11.40;6.70;;;;;;;12.13;51.98;100736.06;4979569;28;20059;-78
2021/11/13 07:49:46;;;;;;;10.95;6.43;;;;;;;12.14;52.13;100742.38;4973870;28;20058;-78
2021/11/13 07:52:15;;;;;;;11.52;6.97;;;;;;;12.13;52.18;100737.91;4971522;28;20102;-78
2021/11/13 07:54:42;;;;;;;10.93;6.57;;;;;;;12.15;52.31;100728.66;4963900;28;20054;-78
2021/11/13 07:57:09;;;;;;;10.30;6.45;;;;;;;12.16;51.96;100746.75;4973242;28;20039;-77
2021/11/13 07:59:42;;;;;;;12.85;6.50;;;;;;;12.20;52.89;100747.34;4968149;28;20105;-77
2021/11/13 08:02:11;;;;;;;9.60;5.25;;;;;;;12.18;52.36;100735.75;4965443;28;20082;-78
2021/11/13 08:04:41;;;;;;;11.43;6.57;;;;;;;12.19;52.80;100749.22;4972572;28;20046;-77
2021/11/13 08:07:11;;;;;;;10.05;6.03;;;;;;;12.17;52.09;100751.19;4974017;28;20105;-78
2021/11/13 08:09:38;;;;;;;12.15;6.70;;;;;;;12.20;52.43;100750.94;4973923;28;20046;-78
2021/11/13 08:12:05;;;;;;;10.80;6.20;;;;;;;12.22;52.25;100749.97;4972861;28;20047;-78
2021/11/13 08:14:32;;;;;;;11.70;5.95;;;;;;;12.23;52.54;100746.25;4971735;28;20525;-78
2021/11/13 08:16:58;;;;;;;9.52;5.32;;;;;;;12.24;52.49;100759.75;4967970;28;20047;-78
2021/11/13 08:19:25;;;;;;;10.13;6.00;;;;;;;12.25;52.60;100761.50;4972306;28;20478;-78
2021/11/13 08:21:53;;;;;;;9.85;5.50;;;;;;;12.28;52.44;100760.38;4973172;28;20055;-78
2021/11/13 08:24:20;;;;;;;8.88;5.43;;;;;;;12.29;52.66;100763.00;4972819;28;20066;-78
2021/11/13 08:26:47;;;;;;;8.93;5.95;;;;;;;12.31;52.23;100765.63;4972001;28;20055;-77
2021/11/13 08:29:41;;;;;;;;;;;;;;;;;;;;;
2021/11/13 08:32:25;;;;;;;10.27;5.47;;;;;;;12.33;52.66;100759.06;4961866;28;20051;-77
2021/11/13 08:34:54;;;;;;;9.68;5.85;;;;;;;12.36;52.66;100757.94;4971883;28;20109;-77
2021/11/13 08:37:21;;;;;;;9.32;5.60;;;;;;;12.38;52.65;100761.44;4971468;28;20109;-77
2021/11/13 08:39:48;;;;;;;8.85;5.30;;;;;;;12.40;52.76;100760.34;4963895;28;20039;-78
2021/11/13 08:42:17;;;;;;;7.97;5.25;;;;;;;12.43;52.75;100764.69;4974009;28;20051;-79
2021/11/13 08:44:45;;;;;;;9.18;5.45;;;;;;;12.45;53.03;100760.84;4952992;28;20062;-78
2021/11/13 08:47:16;;;;;;;8.23;5.00;;;;;;;12.47;52.82;100764.34;4972092;28;20058;-79
2021/11/13 08:49:46;;;;;;;9.90;5.07;;;;;;;12.51;52.84;100771.31;4970137;28;20138;-81
2021/11/13 08:52:17;;;;;;;7.97;4.95;;;;;;;12.54;52.87;100767.44;4971578;28;20097;-83
2021/11/13 08:54:47;;;;;;;9.45;5.35;;;;;;;12.55;53.04;100769.19;4967840;28;20106;-78
2021/11/13 08:57:15;;;;;;;8.70;5.25;;;;;;;12.58;52.52;100774.41;4980721;28;20513;-78
2021/11/13 08:59:41;;;;;;;8.52;4.80;;;;;;;12.59;52.75;100770.72;4972658;28;20053;-77
2021/11/13 09:02:14;;;;;;;8.48;5.30;;;;;;;12.65;53.33;100774.81;4972307;28;20058;-78
2021/11/13 09:04:43;;;;;;;7.82;5.00;;;;;;;12.65;52.47;100774.81;4965578;28;20144;-79
2021/11/13 09:07:11;;;;;;;8.93;4.85;;;;;;;12.69;52.50;100777.16;4986277;28;20167;-78
2021/11/13 09:09:38;;;;;;;9.38;5.43;;;;;;;12.72;52.69;100781.53;4971647;28;20110;-79
2021/11/13 09:12:12;;;;;;;9.88;5.32;;;;;;;12.76;53.04;100774.88;4972147;28;20471;-80
2021/11/13 09:14:41;;;;;;;9.00;5.32;;;;;;;12.77;53.18;100780.16;4971431;28;20054;-81
2021/11/13 09:17:08;;;;;;;8.25;4.72;;;;;;;12.77;53.15;100782.88;4963326;28;20125;-80
2021/11/13 09:19:39;;;;;;;9.35;4.93;;;;;;;12.80;52.82;100779.06;4981914;28;20049;-82
2021/11/13 09:22:12;;;;;;;8.93;4.80;;;;;;;12.84;53.07;100777.88;4972619;28;20086;-82
2021/11/13 09:24:41;;;;;;;8.00;4.47;;;;;;;12.83;52.60;100784.28;4966197;28;20506;-81
2021/11/13 09:27:08;;;;;;;8.48;5.22;;;;;;;12.86;52.68;100779.47;4983466;28;20082;-81
2021/11/13 09:29:35;;;;;;;8.40;4.65;;;;;;;12.88;53.02;100777.50;4982974;28;20054;-81
2021/11/13 09:32:03;;;;;;;7.47;4.32;;;;;;;12.90;52.75;100783.69;4972516;28;20553;-82
2021/11/13 09:34:33;;;;;;;8.77;4.57;;;;;;;12.93;52.89;100785.28;4970272;28;20078;-85
2021/11/13 09:37:03;;;;;;;9.30;4.38;;;;;;;12.96;53.17;100790.53;4971960;28;20474;-87
2021/11/13 09:39:30;;;;;;;7.10;4.15;;;;;;;12.95;52.79;100786.06;4967926;28;20055;-83
2021/11/13 09:42:02;;;;;;;8.30;4.47;;;;;;;13.00;52.90;100792.03;4968408;28;20051;-87
2021/11/13 09:44:29;;;;;;;8.52;4.55;;;;;;;12.99;52.99;100801.19;4967002;28;20055;-87
2021/11/13 09:46:59;;;;;;;7.00;4.20;;;;;;;13.04;52.81;100790.78;4967151;28;20141;-80
2021/11/13 09:49:29;;;;;;;8.93;4.95;;;;;;;13.07;52.98;100790.56;4966966;28;20081;-81
2021/11/13 09:51:57;;;;;;;9.00;4.80;;;;;;;13.08;52.70;100792.31;4974057;28;20101;-80
2021/11/13 09:54:27;;;;;;;7.88;4.90;;;;;;;13.11;52.89;100792.03;4971068;28;20101;-82
2021/11/13 09:56:55;;;;;;;7.97;4.43;;;;;;;13.13;53.15;100795.56;4972480;28;20044;-78
2021/11/13 09:59:22;;;;;;;7.78;4.43;;;;;;;13.15;53.07;100796.31;4970698;28;20063;-79
2021/11/13 10:01:49;;;;;;;6.13;3.97;;;;;;;13.18;53.13;100789.72;4966240;28;20118;-80
2021/11/13 10:04:15;;;;;;;7.93;4.22;;;;;;;13.19;53.04;100792.34;4965367;28;20058;-81
2021/11/13 10:06:43;;;;;;;6.63;4.07;;;;;;;13.22;53.05;100786.66;4962807;28;20145;-81
2021/11/13 10:09:09;;;;;;;7.80;4.28;;;;;;;13.25;53.17;100789.16;4985596;28;20125;-81
2021/11/13 10:11:43;;;;;;;7.85;4.30;;;;;;;13.30;53.52;100788.78;4970841;28;20159;-81
2021/11/13 10:14:14;;;;;;;7.28;4.72;;;;;;;13.33;53.75;100785.81;4969472;28;20058;-80
2021/11/13 10:16:46;;;;;;;7.65;4.45;;;;;;;13.36;53.21;100782.81;4970870;28;20059;-80
2021/11/13 10:19:19;;;;;;;7.72;4.68;;;;;;;13.36;53.43;100776.50;4969377;28;20070;-81
2021/11/13 10:21:52;;;;;;;7.03;4.00;;;;;;;13.41;53.78;100774.28;4972305;28;20070;-80
2021/11/13 10:24:26;;;;;;;7.38;4.25;;;;;;;13.45;53.68;100776.66;4984561;28;20458;-80
2021/11/13 10:26:56;;;;;;;7.00;3.75;;;;;;;13.48;53.75;100772.81;4968026;28;20274;-81
2021/11/13 10:29:28;;;;;;;5.90;3.60;;;;;;;13.48;53.38;100776.41;4970904;28;20057;-80
2021/11/13 10:31:58;;;;;;;6.45;3.97;;;;;;;13.53;53.65;100768.72;4984275;28;20488;-80
2021/11/13 10:34:52;;;;;;;6.32;3.58;;;;;;;13.53;54.42;100773.28;4968285;28;20043;-80
2021/11/13 10:37:25;;;;;;;5.82;3.03;;;;;;;13.57;53.35;100769.34;4969104;28;20149;-80
2021/11/13 10:40:02;;;;;;;6.70;3.67;;;;;;;13.63;54.02;100769.72;4968771;28;20066;-80
2021/11/13 10:42:29;;;;;;;5.35;3.08;;;;;;;13.64;53.35;100776.03;4964301;28;20132;-80
2021/11/13 10:44:59;;;;;;;5.80;3.35;;;;;;;13.68;53.26;100769.31;4969741;28;20101;-80
2021/11/13 10:47:30;;;;;;;6.80;4.13;;;;;;;13.70;53.74;100767.34;4971133;28;20131;-80
2021/11/13 10:50:12;;;;;;;6.40;3.58;;;;;;;13.74;54.35;100778.91;4980255;28;20079;-80
2021/11/13 10:52:39;;;;;;;5.43;3.30;;;;;;;13.72;53.75;100773.56;4968834;28;20538;-80
2021/11/13 10:55:15;;;;;;;5.68;3.08;;;;;;;13.80;54.04;100771.06;4981632;28;20142;-80
2021/11/13 10:58:32;;;;;;;6.28;3.30;;;;;;;13.79;54.10;100772.06;4968575;28;20070;-81
2021/11/13 11:01:02;;;;;;;6.30;3.47;;;;;;;13.80;53.74;100768.34;4970532;28;20055;-81
2021/11/13 11:03:41;;;;;;;5.65;3.67;;;;;;;13.87;53.82;100774.16;4969368;28;20046;-80
2021/11/13 11:06:10;;;;;;;5.90;3.15;;;;;;;13.86;53.48;100775.16;4971315;28;20496;-81
2021/11/13 11:08:39;;;;;;;7.10;3.92;;;;;;;13.87;53.69;100769.56;4969048;28;20517;-80
2021/11/13 11:11:29;;;;;;;6.50;3.28;;;;;;;13.89;54.09;100774.91;4965298;28;20569;-81
2021/11/13 11:13:59;;;;;;;6.45;3.85;;;;;;;13.89;53.59;100770.31;4974980;28;20141;-81
2021/11/13 11:16:38;;;;;;;6.10;3.80;;;;;;;13.93;53.89;100773.66;4978480;28;20083;-81
2021/11/13 11:19:24;;;;;;;7.30;4.15;;;;;;;13.93;53.55;100779.09;4955639;28;20058;-82
2021/11/13 11:21:53;;;;;;;6.10;3.78;;;;;;;13.94;53.72;100775.38;4971192;28;20435;-81
2021/11/13 11:24:21;;;;;;;6.97;3.75;;;;;;;13.94;53.86;100780.84;4972058;28;20453;-82
2021/11/13 11:27:03;;;;;;;7.15;3.58;;;;;;;13.97;54.17;100781.47;4977181;28;20054;-82
2021/11/13 11:29:33;;;;;;;6.03;3.97;;;;;;;13.97;53.72;100775.16;4985926;28;20082;-81